createdAt,value
2022-11-19T00:01:19.848Z,2.83
2022-11-19T00:03:52.158Z,2.84
2022-11-19T00:06:22.237Z,2.84
2022-11-19T00:08:48.885Z,2.84
2022-11-19T00:11:40.126Z,2.81
2022-11-19T00:14:07.703Z,2.82
2022-11-19T00:16:34.331Z,2.82
2022-11-19T00:19:00.857Z,2.82
2022-11-19T00:21:27.466Z,2.80
2022-11-19T00:23:55.078Z,2.80
2022-11-19T00:26:21.973Z,2.79
2022-11-19T00:28:48.755Z,2.80
2022-11-19T00:31:16.414Z,2.80
2022-11-19T00:33:44.546Z,2.80
2022-11-19T00:36:13.874Z,2.78
2022-11-19T00:38:40.426Z,2.80
2022-11-19T00:41:07.188Z,2.79
2022-11-19T00:43:49.596Z,2.80
2022-11-19T00:46:25.224Z,2.79
2022-11-19T00:48:53.584Z,2.79
2022-11-19T00:51:21.600Z,2.78
2022-11-19T00:53:48.185Z,2.77
2022-11-19T00:56:18.022Z,2.76
2022-11-19T00:58:45.248Z,2.76
2022-11-19T01:01:13.577Z,2.73
2022-11-19T01:03:41.121Z,2.72
2022-11-19T01:06:09.101Z,2.72
2022-11-19T01:08:36.106Z,2.71
2022-11-19T01:11:12.720Z,2.68
2022-11-19T01:13:39.340Z,2.69
2022-11-19T01:16:10.142Z,2.67
2022-11-19T01:18:38.609Z,2.66
2022-11-19T01:21:05.844Z,2.63
2022-11-19T01:23:33.358Z,2.62
2022-11-19T01:26:01.069Z,2.62
2022-11-19T01:28:28.044Z,2.60
2022-11-19T01:30:54.448Z,2.61
2022-11-19T01:33:22.637Z,2.62
2022-11-19T01:36:00.605Z,2.59
2022-11-19T01:38:27.794Z,2.61
2022-11-19T01:40:55.627Z,2.61
2022-11-19T01:43:47.176Z,2.59
2022-11-19T01:46:16.916Z,2.62
2022-11-19T01:48:49.023Z,2.63
2022-11-19T01:51:31.108Z,2.59
2022-11-19T01:54:00.268Z,2.61
2022-11-19T01:56:28.207Z,2.62
2022-11-19T02:01:50.690Z,2.61
2022-11-19T02:04:20.495Z,2.59
2022-11-19T02:06:47.936Z,2.58
2022-11-19T02:09:14.907Z,2.55
2022-11-19T02:12:05.228Z,2.51
2022-11-19T02:14:55.182Z,2.47
2022-11-19T02:17:50.572Z,2.45
2022-11-19T02:20:45.916Z,2.44
2022-11-19T02:23:50.030Z,2.40
2022-11-19T02:26:34.762Z,2.40
2022-11-19T02:29:13.596Z,2.38
2022-11-19T02:31:54.461Z,2.31
2022-11-19T02:34:32.989Z,2.32
2022-11-19T02:37:05.313Z,2.31
2022-11-19T02:39:35.068Z,2.31
2022-11-19T02:42:18.696Z,2.31
2022-11-19T02:45:05.531Z,2.32
2022-11-19T02:47:46.868Z,2.29
2022-11-19T02:50:23.354Z,2.30
2022-11-19T02:52:50.390Z,2.31
2022-11-19T02:55:19.668Z,2.30
2022-11-19T02:57:59.031Z,2.28
2022-11-19T03:00:45.090Z,2.29
2022-11-19T03:03:34.085Z,2.27
2022-11-19T03:06:18.445Z,2.22
2022-11-19T03:08:46.476Z,2.22
2022-11-19T03:11:28.399Z,2.17
2022-11-19T03:14:38.622Z,2.14
2022-11-19T03:17:17.865Z,2.11
2022-11-19T03:19:58.232Z,2.09
2022-11-19T03:22:33.691Z,2.06
2022-11-19T03:25:37.454Z,2.01
2022-11-19T03:28:11.382Z,2.01
2022-11-19T03:30:40.756Z,2.01
2022-11-19T03:33:11.657Z,1.99
2022-11-19T03:35:45.090Z,1.99
2022-11-19T03:38:16.779Z,1.97
2022-11-19T03:40:44.648Z,1.95
2022-11-19T03:43:15.979Z,1.93
2022-11-19T03:45:45.491Z,1.90
2022-11-19T03:48:15.756Z,1.89
2022-11-19T03:51:08.277Z,1.83
2022-11-19T03:53:34.924Z,1.86
2022-11-19T03:56:07.616Z,1.82
2022-11-19T03:58:42.426Z,1.78
2022-11-19T04:01:09.884Z,1.77
2022-11-19T04:03:36.781Z,1.73
2022-11-19T04:06:04.189Z,1.71
2022-11-19T04:08:31.049Z,1.68
2022-11-19T04:13:24.558Z,1.64
2022-11-19T04:15:51.526Z,1.63
2022-11-19T04:18:18.089Z,1.62
2022-11-19T04:20:45.656Z,1.58
2022-11-19T04:23:12.170Z,1.55
2022-11-19T04:25:40.414Z,1.51
2022-11-19T04:28:07.001Z,1.45
2022-11-19T04:30:33.616Z,1.40
2022-11-19T04:33:00.172Z,1.34
2022-11-19T04:35:26.736Z,1.29
2022-11-19T04:37:53.238Z,1.24
2022-11-19T04:40:19.790Z,1.20
2022-11-19T04:42:46.300Z,1.14
2022-11-19T04:45:12.857Z,1.11
2022-11-19T04:47:39.371Z,1.06
2022-11-19T04:50:06.386Z,1.02
2022-11-19T04:52:37.656Z,0.98
2022-11-19T04:55:07.159Z,0.95
2022-11-19T04:58:14.086Z,0.90
2022-11-19T05:00:40.654Z,0.88
2022-11-19T05:03:07.191Z,0.84
2022-11-19T05:05:33.691Z,0.81
2022-11-19T05:08:02.020Z,0.78
2022-11-19T05:10:28.571Z,0.74
2022-11-19T05:12:55.135Z,0.71
2022-11-19T05:15:21.714Z,0.68
2022-11-19T05:17:48.303Z,0.66
2022-11-19T05:20:15.400Z,0.63
2022-11-19T05:22:41.938Z,0.60
2022-11-19T05:25:08.880Z,0.58
2022-11-19T05:27:35.363Z,0.56
2022-11-19T05:30:01.921Z,0.55
2022-11-19T05:32:28.605Z,0.53
2022-11-19T05:34:55.135Z,0.50
2022-11-19T05:37:21.756Z,0.48
2022-11-19T05:39:48.245Z,0.45
2022-11-19T05:42:14.799Z,0.43
2022-11-19T05:44:41.345Z,0.40
2022-11-19T05:47:07.963Z,0.39
2022-11-19T05:49:34.559Z,0.36
2022-11-19T05:52:01.128Z,0.35
2022-11-19T05:54:27.635Z,0.33
2022-11-19T05:56:54.272Z,0.31
2022-11-19T05:59:21.413Z,0.30
2022-11-19T06:01:48.348Z,0.28
2022-11-19T06:04:14.983Z,0.27
2022-11-19T06:06:41.514Z,0.27
2022-11-19T06:09:08.325Z,0.25
2022-11-19T06:11:52.973Z,0.24
2022-11-19T06:14:24.626Z,0.22
2022-11-19T06:16:55.751Z,0.22
2022-11-19T06:19:23.288Z,0.20
2022-11-19T06:21:50.195Z,0.18
2022-11-19T06:24:17.354Z,0.16
2022-11-19T06:26:44.119Z,0.15
2022-11-19T06:29:13.559Z,0.14
2022-11-19T06:31:40.059Z,0.11
2022-11-19T06:34:06.685Z,0.09
2022-11-19T06:36:39.069Z,0.08
2022-11-19T06:39:08.576Z,0.06
2022-11-19T06:41:35.210Z,0.04
2022-11-19T06:44:01.768Z,0.03
2022-11-19T06:46:28.377Z,-0.01
2022-11-19T06:48:54.882Z,-0.02
2022-11-19T06:51:21.285Z,-0.05
2022-11-19T06:53:47.828Z,-0.06
2022-11-19T06:56:14.420Z,-0.08
2022-11-19T06:58:40.909Z,-0.10
2022-11-19T07:01:07.401Z,-0.11
2022-11-19T07:03:34.010Z,-0.12
2022-11-19T07:06:03.683Z,-0.14
2022-11-19T07:08:33.766Z,-0.15
2022-11-19T07:11:00.954Z,-0.16
2022-11-19T07:13:50.074Z,-0.17
2022-11-19T07:16:16.514Z,-0.19
2022-11-19T07:18:43.096Z,-0.20
2022-11-19T07:21:09.677Z,-0.21
2022-11-19T07:23:36.214Z,-0.23
2022-11-19T07:26:02.782Z,-0.23
2022-11-19T07:28:29.288Z,-0.22
2022-11-19T07:30:56.058Z,-0.22
2022-11-19T07:33:22.646Z,-0.22
2022-11-19T07:35:49.159Z,-0.22
2022-11-19T07:38:15.716Z,-0.22
2022-11-19T07:40:42.161Z,-0.19
2022-11-19T07:43:08.619Z,-0.19
2022-11-19T07:45:37.707Z,-0.20
2022-11-19T07:48:04.332Z,-0.20
2022-11-19T07:50:30.933Z,-0.19
2022-11-19T07:53:00.544Z,-0.20
2022-11-19T07:55:27.112Z,-0.19
2022-11-19T07:57:54.194Z,-0.19
2022-11-19T08:03:56.573Z,-0.18
2022-11-19T08:06:25.422Z,-0.18
2022-11-19T08:08:56.038Z,-0.17
2022-11-19T08:11:22.485Z,-0.15
2022-11-19T08:13:48.915Z,-0.14
2022-11-19T08:16:35.978Z,-0.11
2022-11-19T08:19:04.257Z,-0.09
2022-11-19T08:21:31.902Z,-0.08
2022-11-19T08:23:58.411Z,-0.06
2022-11-19T08:26:25.942Z,-0.05
2022-11-19T08:28:53.530Z,-0.02
2022-11-19T08:31:21.035Z,-0.02
2022-11-19T08:33:47.468Z,-0.01
2022-11-19T08:36:26.978Z,-0.03
2022-11-19T08:38:56.478Z,-0.01
2022-11-19T08:41:46.654Z,-0.01
2022-11-19T08:44:13.442Z,0.01
2022-11-19T08:46:41.074Z,0.02
2022-11-19T08:49:16.901Z,0.01
2022-11-19T08:51:43.259Z,0.05
2022-11-19T08:54:09.845Z,0.06
2022-11-19T08:56:36.348Z,0.09
2022-11-19T08:59:03.855Z,0.10
2022-11-19T09:01:31.462Z,0.12
2022-11-19T09:03:58.342Z,0.16
2022-11-19T09:06:27.128Z,0.17
2022-11-19T09:08:53.864Z,0.19
2022-11-19T09:11:26.554Z,0.21
2022-11-19T09:13:53.013Z,0.25
2022-11-19T09:16:24.775Z,0.25
2022-11-19T09:18:51.855Z,0.28
2022-11-19T09:21:22.332Z,0.30
2022-11-19T09:23:48.740Z,0.34
2022-11-19T09:26:27.580Z,0.35
2022-11-19T09:28:53.928Z,0.43
2022-11-19T09:31:22.483Z,0.45
2022-11-19T09:33:51.842Z,0.47
2022-11-19T09:36:30.984Z,0.50
2022-11-19T09:38:58.164Z,0.54
2022-11-19T09:41:58.682Z,0.55
2022-11-19T09:44:59.926Z,0.59
2022-11-19T09:47:55.764Z,0.62
2022-11-19T09:50:35.071Z,0.66
2022-11-19T09:53:09.351Z,0.70
2022-11-19T09:55:38.499Z,0.73
2022-11-19T09:58:13.366Z,0.77
2022-11-19T10:00:40.102Z,0.82
2022-11-19T10:03:16.090Z,0.85
2022-11-19T10:06:09.008Z,0.90
2022-11-19T10:09:05.708Z,0.96
2022-11-19T10:11:54.074Z,1.04
2022-11-19T10:14:58.195Z,1.07
2022-11-19T10:18:03.355Z,1.15
2022-11-19T10:20:35.623Z,1.21
2022-11-19T10:23:17.148Z,1.25
2022-11-19T10:25:47.352Z,1.32
2022-11-19T10:28:26.743Z,1.37
2022-11-19T10:31:00.044Z,1.47
2022-11-19T10:33:35.918Z,1.52
2022-11-19T10:36:07.819Z,1.63
2022-11-19T10:38:51.222Z,1.71
2022-11-19T10:41:27.297Z,1.81
2022-11-19T10:44:38.265Z,1.90
2022-11-19T10:47:07.617Z,2.05
2022-11-19T10:49:39.978Z,2.14
2022-11-19T10:52:17.555Z,2.27
2022-11-19T10:54:46.310Z,2.43
2022-11-19T10:57:17.367Z,2.57
2022-11-19T10:59:44.197Z,2.80
2022-11-19T11:02:28.200Z,3.06
2022-11-19T11:05:14.384Z,3.43
2022-11-19T11:07:50.077Z,3.92
2022-11-19T11:10:35.074Z,4.55
2022-11-19T11:13:47.178Z,5.30
2022-11-19T11:16:18.115Z,6.12
2022-11-19T11:18:46.147Z,6.82
2022-11-19T11:21:36.971Z,7.56
2022-11-19T11:24:04.928Z,8.28
2022-11-19T11:26:33.843Z,8.93
2022-11-19T11:29:21.041Z,9.55
2022-11-19T11:31:48.103Z,10.21
2022-11-19T11:34:30.675Z,10.65
2022-11-19T11:36:59.976Z,11.00
2022-11-19T11:39:33.456Z,11.20
2022-11-19T11:42:09.986Z,11.37
2022-11-19T11:44:49.357Z,11.54
2022-11-19T11:47:24.772Z,11.71
2022-11-19T11:50:14.677Z,11.86
2022-11-19T11:52:48.347Z,12.05
2022-11-19T11:55:38.584Z,12.18
2022-11-19T11:58:24.383Z,12.24
2022-11-19T12:00:55.299Z,12.22
2022-11-19T12:03:22.739Z,12.21
2022-11-19T12:05:52.579Z,12.14
2022-11-19T12:08:40.611Z,12.15
2022-11-19T12:11:54.462Z,12.17
2022-11-19T12:14:24.198Z,12.23
2022-11-19T12:17:17.194Z,12.25
2022-11-19T12:19:59.319Z,12.29
2022-11-19T12:22:31.867Z,12.42
2022-11-19T12:25:14.447Z,12.62
2022-11-19T12:27:56.956Z,12.85
2022-11-19T12:30:31.907Z,13.00
2022-11-19T12:33:37.896Z,12.92
2022-11-19T12:36:30.208Z,12.63
2022-11-19T12:39:18.474Z,12.26
2022-11-19T12:42:24.909Z,11.67
2022-11-19T12:45:26.858Z,11.09
2022-11-19T12:48:11.528Z,10.48
2022-11-19T12:50:53.225Z,9.87
2022-11-19T12:53:39.056Z,9.36
2022-11-19T12:56:13.986Z,8.79
2022-11-19T12:59:16.782Z,8.32
2022-11-19T13:01:48.537Z,7.93
2022-11-19T13:04:14.989Z,7.64
2022-11-19T13:06:49.902Z,7.33
2022-11-19T13:09:40.863Z,7.08
2022-11-19T13:12:11.389Z,6.85
2022-11-19T13:14:55.134Z,6.65
2022-11-19T13:17:40.437Z,6.56
2022-11-19T13:20:13.177Z,6.46
2022-11-19T13:22:44.672Z,6.41
2022-11-19T13:25:24.234Z,6.37
2022-11-19T13:27:53.485Z,6.42
2022-11-19T13:30:23.779Z,6.55
2022-11-19T13:32:52.931Z,6.74
2022-11-19T13:35:29.277Z,6.94
2022-11-19T13:38:23.845Z,7.15
2022-11-19T13:41:11.137Z,7.37
2022-11-19T13:43:56.265Z,7.59
2022-11-19T13:46:27.751Z,7.78
2022-11-19T13:49:00.056Z,8.03
2022-11-19T13:51:35.073Z,8.29
2022-11-19T13:54:04.688Z,8.58
2022-11-19T13:56:58.192Z,8.89
2022-11-19T13:59:30.075Z,9.21
2022-11-19T14:02:50.872Z,9.63
2022-11-19T14:05:43.012Z,10.06
2022-11-19T14:08:41.581Z,10.42
2022-11-19T14:11:49.915Z,10.67
2022-11-19T14:14:59.787Z,10.78
2022-11-19T14:18:29.572Z,10.66
2022-11-19T14:21:58.603Z,10.46
2022-11-19T14:24:43.381Z,10.28
2022-11-19T14:27:21.772Z,10.02
2022-11-19T14:29:48.094Z,9.90
2022-11-19T14:32:14.478Z,9.75
2022-11-19T14:34:47.709Z,9.52
2022-11-19T14:37:22.889Z,9.30
2022-11-19T14:39:57.633Z,9.03
2022-11-19T14:42:24.034Z,8.75
2022-11-19T14:45:05.904Z,8.37
2022-11-19T14:47:39.928Z,8.03
2022-11-19T14:50:22.189Z,7.71
2022-11-19T14:52:53.527Z,7.40
2022-11-19T14:55:26.226Z,7.10
2022-11-19T14:57:58.639Z,6.84
2022-11-19T15:00:37.580Z,6.59
2022-11-19T15:03:08.125Z,6.38
2022-11-19T15:05:46.287Z,6.18
2022-11-19T15:08:18.858Z,6.02
2022-11-19T15:11:08.062Z,5.86
2022-11-19T15:13:37.618Z,5.69
2022-11-19T15:16:21.049Z,5.52
2022-11-19T15:19:25.909Z,5.35
2022-11-19T15:22:11.224Z,5.23
2022-11-19T15:24:56.550Z,5.14
2022-11-19T15:27:41.849Z,5.06
2022-11-19T15:30:19.538Z,4.93
2022-11-19T15:33:20.376Z,4.85
2022-11-19T15:36:14.337Z,4.75
2022-11-19T15:38:46.624Z,4.68
2022-11-19T15:41:19.005Z,4.63
2022-11-19T15:43:53.497Z,4.53
2022-11-19T15:46:30.496Z,4.46
2022-11-19T15:49:21.998Z,4.35
2022-11-19T15:52:01.379Z,4.26
2022-11-19T15:54:29.763Z,4.23
2022-11-19T15:57:00.958Z,4.14
2022-11-19T15:59:29.798Z,4.09
2022-11-19T16:02:04.579Z,4.02
2022-11-19T16:04:38.914Z,3.95
2022-11-19T16:07:08.191Z,3.94
2022-11-19T16:09:34.930Z,3.89
2022-11-19T16:12:40.843Z,3.85
2022-11-19T16:15:42.024Z,3.76
2022-11-19T16:18:19.543Z,3.74
2022-11-19T16:20:50.087Z,3.72
2022-11-19T16:23:19.999Z,3.68
2022-11-19T16:25:47.339Z,3.67
2022-11-19T16:28:17.225Z,3.62
2022-11-19T16:30:46.474Z,3.61
2022-11-19T16:33:17.497Z,3.57
2022-11-19T16:35:48.316Z,3.57
2022-11-19T16:38:28.187Z,3.52
2022-11-19T16:41:15.233Z,3.52
2022-11-19T16:43:48.717Z,3.50
2022-11-19T16:46:19.021Z,3.49
2022-11-19T16:48:48.107Z,3.45
2022-11-19T16:51:57.885Z,3.39
2022-11-19T16:54:47.014Z,3.40
2022-11-19T16:57:29.542Z,3.38
2022-11-19T17:00:02.017Z,3.37
2022-11-19T17:02:31.938Z,3.35
2022-11-19T17:05:09.771Z,3.32
2022-11-19T17:07:36.791Z,3.30
2022-11-19T17:10:30.544Z,3.22
2022-11-19T17:12:58.427Z,3.23
2022-11-19T17:15:45.747Z,3.10
2022-11-19T17:18:18.415Z,3.04
2022-11-19T17:20:45.778Z,3.00
2022-11-19T17:23:16.467Z,2.91
2022-11-19T17:25:47.712Z,2.83
2022-11-19T17:28:19.638Z,2.77
2022-11-19T17:30:49.351Z,2.74
2022-11-19T17:33:17.704Z,2.68
2022-11-19T17:35:46.532Z,2.60
2022-11-19T17:38:20.616Z,2.55
2022-11-19T17:40:47.078Z,2.52
2022-11-19T17:43:33.665Z,2.44
2022-11-19T17:46:01.330Z,2.41
2022-11-19T17:48:31.764Z,2.38
2022-11-19T17:50:58.501Z,2.34
2022-11-19T17:53:25.005Z,2.32
2022-11-19T17:55:55.273Z,2.29
2022-11-19T17:58:21.873Z,2.29
2022-11-19T18:00:48.613Z,2.28
2022-11-19T18:03:15.879Z,2.29
2022-11-19T18:05:47.319Z,2.29
2022-11-19T18:08:15.489Z,2.32
2022-11-19T18:10:45.606Z,2.34
2022-11-19T18:13:16.501Z,2.36
2022-11-19T18:15:42.990Z,2.39
2022-11-19T18:18:09.500Z,2.40
2022-11-19T18:20:38.222Z,2.41
2022-11-19T18:23:04.867Z,2.43
2022-11-19T18:25:31.385Z,2.45
2022-11-19T18:27:57.926Z,2.47
2022-11-19T18:30:24.463Z,2.47
2022-11-19T18:32:53.215Z,2.47
2022-11-19T18:35:20.395Z,2.48
2022-11-19T18:37:46.953Z,2.49
2022-11-19T18:40:14.775Z,2.49
2022-11-19T18:43:00.940Z,2.50
2022-11-19T18:45:27.795Z,2.50
2022-11-19T18:47:54.434Z,2.48
2022-11-19T18:50:24.346Z,2.49
2022-11-19T18:52:53.380Z,2.47
2022-11-19T18:55:19.849Z,2.47
2022-11-19T18:57:46.312Z,2.44
2022-11-19T19:00:13.305Z,2.42
2022-11-19T19:02:39.929Z,2.42
2022-11-19T19:05:07.101Z,2.40
2022-11-19T19:07:33.621Z,2.36
2022-11-19T19:10:00.243Z,2.34
2022-11-19T19:12:26.681Z,2.31
2022-11-19T19:14:53.212Z,2.27
2022-11-19T19:17:19.825Z,2.24
2022-11-19T19:19:46.419Z,2.19
2022-11-19T19:22:25.477Z,2.15
2022-11-19T19:25:02.590Z,2.12
2022-11-19T19:27:29.322Z,2.09
2022-11-19T19:30:34.763Z,2.05
2022-11-19T19:33:01.213Z,2.06
2022-11-19T19:35:27.623Z,2.03
2022-11-19T19:37:54.094Z,1.99
2022-11-19T19:40:20.614Z,1.96
2022-11-19T19:42:49.226Z,1.93
2022-11-19T19:45:15.678Z,1.93
2022-11-19T19:47:42.071Z,1.91
2022-11-19T19:50:08.879Z,1.89
2022-11-19T19:52:35.352Z,1.88
2022-11-19T19:55:02.091Z,1.86
2022-11-19T19:57:30.251Z,1.83
2022-11-19T19:59:56.640Z,1.80
